Time;durP1;ratioP1;P1;durP2;ratioP2;P2;SDS_P1;SDS_P2;PMS_P1;PMS_P2;Temp;Humidity;BMP_temperature;BMP_pressure;BME280_temperature;BME280_humidity;BME280_pressure;Samples;Min_cycle;Max_cycle;Signal;HPM_P1;HPM_P2
2023/01/21 00:01:16;;;;;;;10.95;7.95;;;;;;;;;;5032413;28;20055;-64
2023/01/21 00:03:42;;;;;;;11.80;8.25;;;;;;;;;;5031701;28;20501;-64
2023/01/21 00:06:08;;;;;;;10.27;7.25;;;;;;;;;;5032050;28;20029;-65
2023/01/21 00:08:33;;;;;;;11.38;8.07;;;;;;;;;;5031714;28;20033;-64
2023/01/21 00:11:07;;;;;;;14.80;7.68;;;;;;;;;;5031592;28;20052;-64
2023/01/21 00:13:34;;;;;;;11.85;7.93;;;;;;;;;;5031963;28;20022;-64
2023/01/21 00:16:00;;;;;;;12.15;8.15;;;;;;;;;;5031595;28;20112;-64
2023/01/21 00:18:26;;;;;;;9.93;7.80;;;;;;;;;;5014382;28;20021;-64
2023/01/21 00:20:51;;;;;;;10.90;7.95;;;;;;;;;;5032592;28;20631;-64
2023/01/21 00:23:17;;;;;;;11.88;8.73;;;;;;;;;;5035116;28;20021;-64
2023/01/21 00:25:42;;;;;;;11.73;7.65;;;;;;;;;;5035369;28;20096;-64
2023/01/21 00:28:08;;;;;;;11.43;7.50;;;;;;;;;;5035317;28;20030;-64
2023/01/21 00:30:35;;;;;;;10.20;7.32;;;;;;;;;;5035123;28;20025;-64
2023/01/21 00:33:02;;;;;;;12.55;7.43;;;;;;;;;;5035002;28;20105;-64
2023/01/21 00:35:28;;;;;;;11.50;7.93;;;;;;;;;;5035154;28;20033;-64
2023/01/21 00:37:53;;;;;;;9.43;7.10;;;;;;;;;;5034814;28;20018;-64
2023/01/21 00:40:19;;;;;;;10.75;7.45;;;;;;;;;;5034882;28;20079;-64
2023/01/21 00:42:45;;;;;;;12.45;7.85;;;;;;;;;;5034739;28;20031;-64
2023/01/21 00:45:10;;;;;;;10.40;7.30;;;;;;;;;;5034803;28;20025;-64
2023/01/21 00:47:36;;;;;;;10.18;7.68;;;;;;;;;;5034810;28;20033;-64
2023/01/21 00:50:02;;;;;;;10.75;8.00;;;;;;;;;;5035016;28;20075;-64
2023/01/21 00:52:28;;;;;;;10.75;7.60;;;;;;;;;;5034668;28;20508;-64
2023/01/21 00:54:53;;;;;;;9.75;7.38;;;;;;;;;;5034532;28;20030;-64
2023/01/21 00:57:19;;;;;;;11.05;7.65;;;;;;;;;;5034855;28;20539;-64
2023/01/21 00:59:44;;;;;;;11.50;7.50;;;;;;;;;;5034517;28;20393;-64
2023/01/21 01:02:10;;;;;;;10.55;7.50;;;;;;;;;;5034409;28;20025;-64
2023/01/21 01:04:36;;;;;;;10.30;7.40;;;;;;;;;;5034704;28;20036;-65
2023/01/21 01:07:02;;;;;;;11.07;7.43;;;;;;;;;;5034645;28;20030;-64
2023/01/21 01:09:27;;;;;;;10.40;7.53;;;;;;;;;;5034337;28;20444;-64
2023/01/21 01:11:53;;;;;;;10.93;7.43;;;;;;;;;;5034349;28;20076;-64
2023/01/21 01:14:19;;;;;;;11.18;7.68;;;;;;;;;;5034149;28;20072;-64
2023/01/21 01:16:44;;;;;;;10.35;7.47;;;;;;;;;;5034147;28;20231;-64
2023/01/21 01:19:11;;;;;;;9.38;7.05;;;;;;;;;;5034087;28;20021;-64
2023/01/21 01:21:36;;;;;;;11.13;7.88;;;;;;;;;;5034075;28;20091;-64
2023/01/21 01:24:02;;;;;;;10.63;7.55;;;;;;;;;;5034128;28;20034;-64
2023/01/21 01:26:28;;;;;;;11.38;7.65;;;;;;;;;;5016245;28;20026;-64
2023/01/21 01:28:54;;;;;;;10.15;7.28;;;;;;;;;;5033997;28;20158;-64
2023/01/21 01:31:21;;;;;;;11.13;7.47;;;;;;;;;;5033404;28;20022;-64
2023/01/21 01:33:46;;;;;;;10.85;7.35;;;;;;;;;;5033872;28;20108;-64
2023/01/21 01:36:18;;;;;;;8.98;6.90;;;;;;;;;;5033988;28;20129;-64
2023/01/21 01:38:44;;;;;;;10.23;7.53;;;;;;;;;;5034077;28;20053;-64
2023/01/21 01:41:15;;;;;;;11.13;7.50;;;;;;;;;;5033688;28;20116;-64
2023/01/21 01:43:48;;;;;;;10.15;7.43;;;;;;;;;;5033722;28;20026;-64
2023/01/21 01:46:14;;;;;;;10.52;7.20;;;;;;;;;;5033866;28;20040;-64
2023/01/21 01:48:41;;;;;;;10.13;7.07;;;;;;;;;;5033781;28;20484;-64
2023/01/21 01:51:08;;;;;;;11.27;7.20;;;;;;;;;;5033784;28;20021;-64
2023/01/21 01:53:36;;;;;;;10.52;7.50;;;;;;;;;;5015788;28;20025;-64
2023/01/21 01:56:02;;;;;;;11.85;7.82;;;;;;;;;;5033404;28;20033;-64
2023/01/21 01:58:28;;;;;;;8.35;6.40;;;;;;;;;;5033634;28;20061;-64
2023/01/21 02:00:54;;;;;;;10.52;7.65;;;;;;;;;;5033728;28;20036;-64
2023/01/21 02:06:03;;;;;;;9.48;7.05;;;;;;;;;;5033384;28;20129;-64
2023/01/21 02:08:31;;;;;;;10.23;7.13;;;;;;;;;;5033174;28;20104;-64
2023/01/21 02:10:57;;;;;;;9.30;6.88;;;;;;;;;;5032934;28;20405;-64
2023/01/21 02:13:28;;;;;;;10.20;7.50;;;;;;;;;;5033040;28;20022;-64
2023/01/21 02:16:20;;;;;;;9.20;6.55;;;;;;;;;;5033285;28;20072;-64
2023/01/21 02:18:57;;;;;;;9.00;6.85;;;;;;;;;;5032975;28;20035;-64
2023/01/21 02:21:47;;;;;;;10.52;7.15;;;;;;;;;;5033094;28;20482;-64
2023/01/21 02:24:21;;;;;;;10.18;7.38;;;;;;;;;;5015223;28;20028;-64
2023/01/21 02:26:50;;;;;;;10.13;6.97;;;;;;;;;;5033127;28;20132;-64
2023/01/21 02:29:30;;;;;;;9.25;6.55;;;;;;;;;;5032790;28;20025;-64
2023/01/21 02:32:15;;;;;;;8.90;6.82;;;;;;;;;;5033103;28;20037;-64
2023/01/21 02:34:52;;;;;;;9.43;6.90;;;;;;;;;;5032899;28;20079;-64
2023/01/21 02:37:40;;;;;;;9.75;6.93;;;;;;;;;;5032712;28;20591;-64
2023/01/21 02:40:12;;;;;;;9.68;6.93;;;;;;;;;;5032767;28;20393;-64
2023/01/21 02:42:45;;;;;;;9.48;6.93;;;;;;;;;;5032376;28;20108;-64
2023/01/21 02:45:19;;;;;;;8.70;6.70;;;;;;;;;;5032209;28;20032;-64
2023/01/21 02:48:09;;;;;;;8.93;6.88;;;;;;;;;;5032565;28;20420;-64
2023/01/21 02:50:40;;;;;;;8.48;7.05;;;;;;;;;;5033134;28;20067;-64
2023/01/21 02:53:06;;;;;;;9.52;6.57;;;;;;;;;;5032715;28;20057;-64
2023/01/21 02:55:35;;;;;;;9.60;6.88;;;;;;;;;;5032325;28;20141;-64
2023/01/21 02:58:14;;;;;;;9.80;7.23;;;;;;;;;;5014673;28;20036;-64
2023/01/21 03:00:42;;;;;;;8.88;6.97;;;;;;;;;;5032520;28;20029;-64
2023/01/21 03:03:19;;;;;;;9.40;6.93;;;;;;;;;;5032609;28;20025;-64
2023/01/21 03:05:59;;;;;;;10.85;6.88;;;;;;;;;;5032704;28;20425;-64
2023/01/21 03:08:44;;;;;;;11.40;7.13;;;;;;;;;;5032590;28;20432;-64
2023/01/21 03:11:20;;;;;;;9.23;6.90;;;;;;;;;;5032060;28;20103;-64
2023/01/21 03:17:21;;;;;;;10.82;6.82;;;;;;;;;;5032217;28;20060;-64
2023/01/21 03:20:02;;;;;;;7.25;6.05;;;;;;;;;;5032217;28;20021;-64
2023/01/21 03:22:32;;;;;;;9.38;6.63;;;;;;;;;;5032256;28;20113;-64
2023/01/21 03:24:59;;;;;;;8.63;6.80;;;;;;;;;;5032237;28;20425;-64
2023/01/21 03:27:27;;;;;;;8.90;6.90;;;;;;;;;;5032135;28;20421;-64
2023/01/21 03:30:08;;;;;;;8.75;6.28;;;;;;;;;;5032106;28;20486;-64
2023/01/21 03:32:35;;;;;;;9.27;6.65;;;;;;;;;;5032158;28;20029;-64
2023/01/21 03:35:02;;;;;;;9.45;6.43;;;;;;;;;;5031970;28;20482;-64
2023/01/21 03:37:37;;;;;;;8.57;6.72;;;;;;;;;;5032358;28;20079;-64
2023/01/21 03:40:27;;;;;;;9.85;6.78;;;;;;;;;;5031966;28;20036;-64
2023/01/21 03:42:55;;;;;;;8.63;6.53;;;;;;;;;;5032074;28;20039;-64
2023/01/21 03:46:10;;;;;;;7.82;6.07;;;;;;;;;;5031922;28;20041;-64
2023/01/21 03:48:42;;;;;;;7.40;6.10;;;;;;;;;;4985635;28;20037;-64
2023/01/21 03:51:14;;;;;;;9.38;6.43;;;;;;;;;;5032215;28;20030;-64
2023/01/21 03:53:41;;;;;;;8.70;6.47;;;;;;;;;;5031965;28;20047;-64
2023/01/21 03:56:06;;;;;;;8.25;5.95;;;;;;;;;;5034735;28;20029;-64
2023/01/21 03:58:32;;;;;;;10.77;7.10;;;;;;;;;;5035938;28;20116;-64
2023/01/21 04:00:58;;;;;;;9.65;6.70;;;;;;;;;;5035670;28;20380;-63
2023/01/21 04:03:23;;;;;;;9.65;6.70;;;;;;;;;;5035526;28;20355;-63
2023/01/21 04:05:49;;;;;;;9.05;6.47;;;;;;;;;;5035784;28;20025;-64
2023/01/21 04:08:14;;;;;;;9.90;6.32;;;;;;;;;;5035754;28;20128;-63
2023/01/21 04:10:40;;;;;;;9.55;6.85;;;;;;;;;;5035296;28;20042;-63
2023/01/21 04:13:05;;;;;;;8.65;6.30;;;;;;;;;;5035683;28;20469;-64
2023/01/21 04:15:31;;;;;;;7.68;6.50;;;;;;;;;;5035290;28;20429;-64
2023/01/21 04:17:56;;;;;;;10.20;6.68;;;;;;;;;;5035262;28;20489;-63
2023/01/21 04:20:22;;;;;;;7.80;6.05;;;;;;;;;;5035172;28;20029;-63
2023/01/21 04:22:47;;;;;;;7.82;6.20;;;;;;;;;;5035468;28;20026;-63
2023/01/21 04:25:13;;;;;;;9.13;6.50;;;;;;;;;;5035132;28;20029;-64
2023/01/21 04:27:39;;;;;;;9.00;6.18;;;;;;;;;;5035160;28;20029;-64
2023/01/21 04:30:05;;;;;;;7.22;5.88;;;;;;;;;;5035083;28;20655;-63
2023/01/21 04:32:30;;;;;;;9.30;6.32;;;;;;;;;;5035328;28;20056;-63
2023/01/21 04:34:56;;;;;;;9.60;5.85;;;;;;;;;;5034987;28;20532;-63
2023/01/21 04:37:21;;;;;;;9.75;6.50;;;;;;;;;;5035111;28;20033;-64
2023/01/21 04:39:47;;;;;;;7.43;6.03;;;;;;;;;;5034897;28;20407;-64
2023/01/21 04:42:12;;;;;;;9.55;6.65;;;;;;;;;;5034946;28;20033;-64
2023/01/21 04:44:38;;;;;;;7.88;5.88;;;;;;;;;;5017128;28;20034;-64
2023/01/21 04:47:03;;;;;;;8.40;5.93;;;;;;;;;;5034744;28;20026;-64
2023/01/21 04:49:29;;;;;;;8.20;6.15;;;;;;;;;;5034937;28;20079;-63
2023/01/21 04:51:55;;;;;;;8.15;6.07;;;;;;;;;;5034939;28;20057;-64
2023/01/21 04:54:21;;;;;;;8.88;6.07;;;;;;;;;;5034621;28;20424;-64
2023/01/21 04:56:47;;;;;;;8.63;6.03;;;;;;;;;;5034555;28;20032;-64
2023/01/21 04:59:12;;;;;;;7.88;5.95;;;;;;;;;;5034796;28;20529;-64
2023/01/21 05:01:38;;;;;;;8.55;6.00;;;;;;;;;;5034505;28;20493;-63
2023/01/21 05:04:03;;;;;;;7.75;5.88;;;;;;;;;;5034711;28;20108;-64
2023/01/21 05:06:29;;;;;;;7.32;5.75;;;;;;;;;;5033592;28;20500;-64
2023/01/21 05:08:55;;;;;;;8.38;6.43;;;;;;;;;;5034647;28;20478;-64
2023/01/21 05:11:20;;;;;;;9.02;6.32;;;;;;;;;;5034260;28;20042;-64
2023/01/21 05:13:46;;;;;;;8.52;6.13;;;;;;;;;;5016510;28;20079;-64
2023/01/21 05:16:13;;;;;;;8.05;6.20;;;;;;;;;;5034211;28;20033;-63
2023/01/21 05:18:39;;;;;;;8.35;6.00;;;;;;;;;;5034165;28;20030;-63
2023/01/21 05:21:05;;;;;;;7.85;5.90;;;;;;;;;;5034157;28;20029;-63
2023/01/21 05:23:31;;;;;;;7.60;5.97;;;;;;;;;;5034019;28;20028;-63
2023/01/21 05:25:57;;;;;;;8.32;6.03;;;;;;;;;;5016189;28;20112;-64
2023/01/21 05:28:22;;;;;;;7.90;5.80;;;;;;;;;;5034038;28;20108;-63
2023/01/21 05:30:48;;;;;;;7.95;5.80;;;;;;;;;;5033920;28;20017;-63
2023/01/21 05:33:13;;;;;;;7.43;6.15;;;;;;;;;;5034197;28;20057;-63
2023/01/21 05:35:39;;;;;;;7.38;6.30;;;;;;;;;;5033735;28;20025;-63
2023/01/21 05:38:05;;;;;;;7.75;5.80;;;;;;;;;;5033778;28;20037;-63
2023/01/21 05:40:30;;;;;;;8.18;6.15;;;;;;;;;;5034005;28;20022;-63
2023/01/21 05:42:56;;;;;;;8.55;6.38;;;;;;;;;;5033668;28;20021;-63
2023/01/21 05:45:22;;;;;;;7.45;5.80;;;;;;;;;;5015742;28;20025;-63
2023/01/21 05:47:47;;;;;;;8.98;6.15;;;;;;;;;;5033692;28;20072;-63
2023/01/21 05:50:13;;;;;;;9.35;6.25;;;;;;;;;;5033720;28;20047;-63
2023/01/21 05:52:39;;;;;;;7.97;6.18;;;;;;;;;;5033421;28;20384;-63
2023/01/21 05:55:05;;;;;;;7.65;5.88;;;;;;;;;;5033357;28;20037;-63
2023/01/21 05:57:31;;;;;;;8.15;5.82;;;;;;;;;;5033467;28;20025;-63
2023/01/21 05:59:57;;;;;;;8.98;6.43;;;;;;;;;;5033537;28;20088;-64
2023/01/21 06:02:23;;;;;;;8.48;6.40;;;;;;;;;;5033254;28;20036;-63
2023/01/21 06:04:48;;;;;;;7.90;6.05;;;;;;;;;;5033528;28;20017;-63
2023/01/21 06:07:14;;;;;;;8.43;6.13;;;;;;;;;;5033544;28;20021;-63
2023/01/21 06:09:40;;;;;;;8.95;6.53;;;;;;;;;;5033023;28;20046;-63
2023/01/21 06:12:05;;;;;;;7.60;5.78;;;;;;;;;;5033202;28;20061;-63
2023/01/21 06:14:31;;;;;;;7.38;5.68;;;;;;;;;;5033144;28;20029;-63
2023/01/21 06:16:56;;;;;;;7.82;6.43;;;;;;;;;;5033024;28;20041;-63
2023/01/21 06:19:22;;;;;;;8.82;6.20;;;;;;;;;;5032942;28;20021;-63
2023/01/21 06:21:47;;;;;;;7.47;5.88;;;;;;;;;;5033074;28;20029;-63
2023/01/21 06:24:14;;;;;;;8.57;6.40;;;;;;;;;;5033163;28;20029;-63
2023/01/21 06:26:39;;;;;;;7.50;6.18;;;;;;;;;;5033242;28;20026;-63
2023/01/21 06:29:05;;;;;;;8.15;6.30;;;;;;;;;;5032909;28;20095;-63
2023/01/21 06:31:30;;;;;;;8.90;6.60;;;;;;;;;;5033101;28;20029;-63
2023/01/21 06:33:56;;;;;;;8.45;6.05;;;;;;;;;;5032627;28;20021;-63
2023/01/21 06:36:21;;;;;;;8.18;6.22;;;;;;;;;;5032950;28;20100;-63
2023/01/21 06:38:47;;;;;;;7.40;5.72;;;;;;;;;;5032616;28;20109;-64
2023/01/21 06:41:13;;;;;;;8.07;6.38;;;;;;;;;;5015109;28;20033;-63
2023/01/21 06:43:38;;;;;;;9.50;6.38;;;;;;;;;;5032522;28;20021;-63
2023/01/21 06:46:04;;;;;;;8.00;5.65;;;;;;;;;;5032647;28;20109;-63
2023/01/21 06:48:29;;;;;;;8.70;6.35;;;;;;;;;;5032744;28;20382;-63
2023/01/21 06:50:55;;;;;;;7.85;6.07;;;;;;;;;;5032481;28;20485;-64
2023/01/21 06:53:20;;;;;;;9.35;6.30;;;;;;;;;;5032331;28;20037;-64
2023/01/21 06:55:46;;;;;;;9.10;6.22;;;;;;;;;;5032207;28;20025;-64
2023/01/21 06:58:13;;;;;;;8.65;5.80;;;;;;;;;;5032226;28;20383;-64
2023/01/21 07:00:39;;;;;;;9.68;6.15;;;;;;;;;;5032299;28;20028;-64
2023/01/21 07:03:05;;;;;;;8.93;5.82;;;;;;;;;;5032259;28;20030;-64
2023/01/21 07:05:30;;;;;;;7.28;5.85;;;;;;;;;;5032314;28;20108;-63
2023/01/21 07:07:56;;;;;;;8.68;6.05;;;;;;;;;;5032352;28;20110;-63
2023/01/21 07:10:25;;;;;;;8.05;6.10;;;;;;;;;;5032107;28;20051;-63
2023/01/21 07:12:51;;;;;;;8.27;6.50;;;;;;;;;;5014507;28;20509;-63
2023/01/21 07:15:16;;;;;;;7.15;5.55;;;;;;;;;;5032261;28;20029;-62
2023/01/21 07:17:42;;;;;;;8.50;6.03;;;;;;;;;;5032443;28;20091;-63
2023/01/21 07:20:11;;;;;;;10.38;6.53;;;;;;;;;;5032544;28;20032;-63
2023/01/21 07:22:37;;;;;;;7.78;5.90;;;;;;;;;;5014876;28;20598;-64
2023/01/21 07:25:02;;;;;;;8.23;6.28;;;;;;;;;;5032152;28;20108;-62
2023/01/21 07:27:28;;;;;;;14.65;6.88;;;;;;;;;;5032156;28;20030;-61
2023/01/21 07:29:54;;;;;;;22.00;8.15;;;;;;;;;;5033165;28;20079;-62
2023/01/21 07:32:19;;;;;;;18.15;7.93;;;;;;;;;;5036021;28;20022;-62
2023/01/21 07:34:45;;;;;;;16.65;7.10;;;;;;;;;;5035367;28;20497;-63
2023/01/21 07:37:10;;;;;;;16.50;6.88;;;;;;;;;;5035167;28;20036;-62
2023/01/21 07:39:36;;;;;;;20.05;7.50;;;;;;;;;;5035334;28;20288;-62
2023/01/21 07:42:01;;;;;;;11.15;6.50;;;;;;;;;;5035332;28;20025;-62
2023/01/21 07:44:27;;;;;;;15.80;6.80;;;;;;;;;;5035467;28;20065;-62
2023/01/21 07:46:52;;;;;;;17.40;6.97;;;;;;;;;;5035580;28;20041;-62
2023/01/21 07:49:18;;;;;;;15.60;6.93;;;;;;;;;;5035896;28;20134;-62
2023/01/21 07:51:44;;;;;;;15.43;6.75;;;;;;;;;;5035725;28;20428;-62
2023/01/21 07:54:11;;;;;;;13.30;6.40;;;;;;;;;;5035768;28;20036;-62
2023/01/21 07:56:36;;;;;;;13.40;6.75;;;;;;;;;;5035590;28;20029;-61
2023/01/21 07:59:02;;;;;;;13.13;6.82;;;;;;;;;;5035931;28;20036;-62
2023/01/21 08:01:29;;;;;;;13.35;7.03;;;;;;;;;;5035676;28;20064;-61
2023/01/21 08:03:59;;;;;;;16.83;7.45;;;;;;;;;;5035651;28;20025;-62
2023/01/21 08:06:25;;;;;;;19.40;6.82;;;;;;;;;;5035580;28;20527;-61
2023/01/21 08:08:50;;;;;;;14.85;7.03;;;;;;;;;;5035635;28;20025;-61
2023/01/21 08:11:16;;;;;;;14.60;6.90;;;;;;;;;;5035272;28;20125;-62
2023/01/21 08:13:41;;;;;;;15.73;6.93;;;;;;;;;;5035447;28;20390;-62
2023/01/21 08:16:10;;;;;;;11.98;6.95;;;;;;;;;;5035485;28;20032;-62
2023/01/21 08:18:36;;;;;;;15.07;6.95;;;;;;;;;;5036757;28;20053;-62
2023/01/21 08:21:01;;;;;;;10.25;6.68;;;;;;;;;;5044186;28;20052;-61
2023/01/21 08:23:27;;;;;;;15.27;6.93;;;;;;;;;;5043983;28;20017;-62
2023/01/21 08:25:52;;;;;;;12.02;7.15;;;;;;;;;;5043663;28;20544;-62
2023/01/21 08:28:18;;;;;;;11.07;6.80;;;;;;;;;;5044004;28;20059;-62
2023/01/21 08:30:44;;;;;;;14.05;7.10;;;;;;;;;;5044556;28;20070;-62
2023/01/21 08:33:09;;;;;;;12.02;6.72;;;;;;;;;;5043755;28;20017;-62
2023/01/21 08:35:35;;;;;;;15.32;6.68;;;;;;;;;;5043420;28;20040;-62
2023/01/21 08:38:01;;;;;;;11.82;6.68;;;;;;;;;;5043225;28;20148;-62
2023/01/21 08:40:27;;;;;;;13.13;6.38;;;;;;;;;;5044189;28;20484;-61
2023/01/21 08:43:03;;;;;;;12.77;7.07;;;;;;;;;;5042051;28;20048;-62
2023/01/21 08:45:30;;;;;;;13.13;6.95;;;;;;;;;;5025692;28;20022;-62
2023/01/21 08:47:56;;;;;;;11.88;6.72;;;;;;;;;;5043459;28;20029;-62
2023/01/21 08:50:22;;;;;;;13.77;7.03;;;;;;;;;;5044397;28;20071;-62
2023/01/21 08:52:55;;;;;;;10.77;6.97;;;;;;;;;;5043330;28;20434;-62
2023/01/21 08:55:25;;;;;;;15.60;7.72;;;;;;;;;;5038715;28;20024;-62
2023/01/21 08:57:53;;;;;;;12.30;6.68;;;;;;;;;;5039614;28;20018;-64
2023/01/21 09:00:19;;;;;;;14.48;7.07;;;;;;;;;;5039976;28;20017;-62
2023/01/21 09:02:45;;;;;;;14.30;6.95;;;;;;;;;;5039762;28;20037;-63
2023/01/21 09:05:11;;;;;;;11.43;6.97;;;;;;;;;;5039689;28;20033;-62
2023/01/21 09:07:36;;;;;;;12.00;6.88;;;;;;;;;;5039624;28;20104;-62
2023/01/21 09:10:03;;;;;;;14.63;7.20;;;;;;;;;;5040654;28;20053;-63
2023/01/21 09:12:29;;;;;;;16.85;7.72;;;;;;;;;;5039694;28;20122;-63
2023/01/21 09:14:55;;;;;;;13.70;6.80;;;;;;;;;;5039913;28;20477;-63
2023/01/21 09:17:21;;;;;;;12.98;6.70;;;;;;;;;;5038459;28;20110;-63
2023/01/21 09:19:47;;;;;;;15.88;6.90;;;;;;;;;;5039184;28;20159;-63
2023/01/21 09:22:13;;;;;;;12.88;6.75;;;;;;;;;;5039265;28;20104;-63
2023/01/21 09:24:39;;;;;;;12.43;6.90;;;;;;;;;;5040436;28;20026;-63
2023/01/21 09:27:06;;;;;;;14.05;7.45;;;;;;;;;;5038636;28;20028;-63
2023/01/21 09:29:32;;;;;;;14.02;7.32;;;;;;;;;;5039411;28;20017;-63
2023/01/21 09:31:58;;;;;;;11.00;7.30;;;;;;;;;;5039396;28;20430;-63
2023/01/21 09:34:24;;;;;;;13.23;7.38;;;;;;;;;;5038180;28;20024;-62
2023/01/21 09:36:50;;;;;;;13.98;7.32;;;;;;;;;;5033834;28;20034;-62
2023/01/21 09:39:15;;;;;;;13.55;6.97;;;;;;;;;;5033761;28;20809;-63
2023/01/21 09:41:41;;;;;;;11.23;7.38;;;;;;;;;;5010688;28;20030;-62
2023/01/21 09:44:25;;;;;;;15.23;7.50;;;;;;;;;;5034028;28;20379;-62
2023/01/21 09:46:59;;;;;;;12.45;7.53;;;;;;;;;;5033608;28;20087;-62
2023/01/21 09:51:58;;;;;;;13.60;6.93;;;;;;;;;;4992689;28;20046;-65
2023/01/21 09:54:27;;;;;;;13.40;8.52;;;;;;;;;;4993964;28;20023;-63
2023/01/21 09:57:29;;;;;;;12.32;7.25;;;;;;;;;;4994213;28;20117;-65
2023/01/21 10:00:12;;;;;;;13.45;7.28;;;;;;;;;;4993744;28;20548;-64
2023/01/21 10:02:59;;;;;;;11.15;7.10;;;;;;;;;;4994209;28;20084;-63
2023/01/21 10:05:28;;;;;;;13.40;7.60;;;;;;;;;;4994100;28;20033;-64
2023/01/21 10:08:09;;;;;;;11.10;6.88;;;;;;;;;;4994119;28;20022;-64
2023/01/21 10:10:57;;;;;;;14.52;7.30;;;;;;;;;;4993916;28;20101;-64
2023/01/21 10:13:28;;;;;;;11.38;7.07;;;;;;;;;;4994137;28;20022;-65
2023/01/21 10:16:27;;;;;;;12.15;7.60;;;;;;;;;;4993915;28;20030;-65
2023/01/21 10:18:55;;;;;;;12.52;7.43;;;;;;;;;;4992688;28;20043;-64
2023/01/21 10:21:55;;;;;;;13.00;7.03;;;;;;;;;;4993811;28;20146;-64
2023/01/21 10:24:34;;;;;;;12.35;7.32;;;;;;;;;;4992642;28;20037;-64
2023/01/21 10:26:59;;;;;;;11.05;7.05;;;;;;;;;;4994132;28;20050;-66
2023/01/21 10:29:26;;;;;;;12.70;7.53;;;;;;;;;;4992431;28;20034;-65
2023/01/21 10:31:54;;;;;;;14.88;7.38;;;;;;;;;;4993923;28;20041;-64
2023/01/21 10:34:19;;;;;;;11.30;7.07;;;;;;;;;;4992740;28;20037;-67
2023/01/21 10:36:56;;;;;;;45.38;27.65;;;;;;;;;;4993612;28;20391;-64
2023/01/21 10:39:30;;;;;;;35.95;23.15;;;;;;;;;;4993505;28;20022;-64
2023/01/21 10:42:05;;;;;;;35.67;22.05;;;;;;;;;;4993586;28;20022;-64
2023/01/21 10:44:56;;;;;;;19.63;12.18;;;;;;;;;;4992341;28;20034;-65
2023/01/21 10:47:30;;;;;;;16.48;8.93;;;;;;;;;;4993739;28;20022;-64
2023/01/21 10:50:24;;;;;;;16.10;9.88;;;;;;;;;;4997230;28;20493;-64
2023/01/21 10:52:56;;;;;;;16.35;10.45;;;;;;;;;;5012838;28;20030;-65
2023/01/21 10:55:52;;;;;;;16.95;10.68;;;;;;;;;;5012987;28;20033;-64
2023/01/21 10:58:17;;;;;;;15.57;9.82;;;;;;;;;;5012833;28;20029;-64
2023/01/21 11:00:47;;;;;;;18.83;10.35;;;;;;;;;;5010819;28;20026;-65
2023/01/21 11:03:17;;;;;;;17.20;9.98;;;;;;;;;;5012892;28;20153;-63
2023/01/21 11:05:44;;;;;;;16.90;10.02;;;;;;;;;;5009799;28;20128;-63
2023/01/21 11:08:19;;;;;;;16.77;9.82;;;;;;;;;;5012396;28;20420;-63
2023/01/21 11:10:48;;;;;;;14.38;10.02;;;;;;;;;;5002639;28;20017;-63
2023/01/21 11:13:14;;;;;;;15.17;10.20;;;;;;;;;;5008039;28;20065;-64
2023/01/21 11:15:47;;;;;;;17.20;10.20;;;;;;;;;;5007950;28;20061;-63
2023/01/21 11:18:24;;;;;;;18.25;10.10;;;;;;;;;;5009662;28;20029;-63
2023/01/21 11:20:52;;;;;;;15.63;9.50;;;;;;;;;;5011686;28;20022;-64
2023/01/21 11:23:29;;;;;;;16.60;10.05;;;;;;;;;;5011020;28;20109;-64
2023/01/21 11:26:14;;;;;;;21.25;10.38;;;;;;;;;;4992566;28;20026;-63
2023/01/21 11:28:40;;;;;;;16.15;9.85;;;;;;;;;;4995452;28;20065;-65
2023/01/21 11:31:08;;;;;;;17.33;9.80;;;;;;;;;;5010049;28;20044;-63
2023/01/21 11:33:35;;;;;;;16.33;9.98;;;;;;;;;;5008508;28;20034;-64
2023/01/21 11:36:18;;;;;;;16.30;9.65;;;;;;;;;;5008013;28;20461;-64
2023/01/21 11:38:46;;;;;;;21.85;10.45;;;;;;;;;;5009143;28;20433;-63
2023/01/21 11:41:11;;;;;;;16.50;10.13;;;;;;;;;;5008445;28;20466;-64
2023/01/21 11:43:49;;;;;;;14.80;9.52;;;;;;;;;;5007007;28;20048;-64
2023/01/21 11:46:36;;;;;;;16.30;9.80;;;;;;;;;;5008297;28;20029;-64
2023/01/21 11:49:08;;;;;;;16.52;9.73;;;;;;;;;;5009875;28;20038;-64
2023/01/21 11:51:34;;;;;;;17.33;10.38;;;;;;;;;;5006700;28;20058;-64
2023/01/21 11:54:13;;;;;;;17.65;9.30;;;;;;;;;;5009272;28;20053;-64
2023/01/21 11:56:42;;;;;;;15.23;9.50;;;;;;;;;;5007058;28;20026;-64
2023/01/21 11:59:43;;;;;;;17.15;10.07;;;;;;;;;;5010284;28;20036;-64
2023/01/21 12:02:14;;;;;;;14.40;9.07;;;;;;;;;;5008779;28;20381;-63
2023/01/21 12:05:11;;;;;;;16.17;9.73;;;;;;;;;;5009281;28;20033;-63
2023/01/21 12:07:40;;;;;;;15.52;9.27;;;;;;;;;;5010013;28;20250;-61
2023/01/21 12:10:33;;;;;;;15.77;9.48;;;;;;;;;;5010396;28;20065;-63
2023/01/21 12:13:25;;;;;;;18.33;9.98;;;;;;;;;;5010562;28;20037;-65
2023/01/21 12:16:11;;;;;;;15.50;9.65;;;;;;;;;;5013596;28;20048;-63
2023/01/21 12:18:52;;;;;;;16.90;9.45;;;;;;;;;;5011502;28;20041;-65
2023/01/21 12:21:20;;;;;;;15.48;9.70;;;;;;;;;;5013962;28;20029;-63
2023/01/21 12:23:45;;;;;;;16.00;9.35;;;;;;;;;;5014093;28;20034;-63
2023/01/21 12:26:40;;;;;;;15.70;9.75;;;;;;;;;;5012503;28;20022;-63
2023/01/21 12:29:08;;;;;;;17.13;10.20;;;;;;;;;;5016214;28;20104;-64
2023/01/21 12:31:49;;;;;;;14.25;9.80;;;;;;;;;;5022336;28;20069;-65
2023/01/21 12:34:21;;;;;;;16.98;9.40;;;;;;;;;;5022145;28;20068;-64
2023/01/21 12:37:12;;;;;;;15.02;9.35;;;;;;;;;;5030418;28;20548;-63
2023/01/21 12:39:39;;;;;;;15.02;9.43;;;;;;;;;;5026927;28;20033;-65
2023/01/21 12:42:14;;;;;;;15.75;9.43;;;;;;;;;;5033426;28;20027;-64
2023/01/21 12:44:49;;;;;;;15.45;9.30;;;;;;;;;;5012131;28;20018;-65
2023/01/21 12:47:43;;;;;;;18.38;9.35;;;;;;;;;;5012287;28;20030;-64
2023/01/21 12:50:22;;;;;;;15.55;9.13;;;;;;;;;;5008238;28;20038;-63
2023/01/21 12:52:57;;;;;;;13.98;9.38;;;;;;;;;;5015458;28;20927;-62
2023/01/21 12:55:26;;;;;;;15.60;9.25;;;;;;;;;;5012385;28;20096;-63
2023/01/21 12:57:58;;;;;;;13.13;9.23;;;;;;;;;;5014714;28;20079;-64
2023/01/21 13:00:28;;;;;;;13.32;8.95;;;;;;;;;;5029481;28;20548;-63
2023/01/21 13:03:12;;;;;;;;;;;;;;;;;;5013848;28;20044;-63
2023/01/21 13:06:16;;;;;;;12.50;8.65;;;;;;;;;;5013239;28;20003;-62
2023/01/21 13:08:53;;;;;;;14.70;9.27;;;;;;;;;;5013150;28;20088;-65
2023/01/21 13:11:57;;;;;;;14.23;9.00;;;;;;;;;;5012893;28;20037;-64
2023/01/21 13:14:37;;;;;;;15.38;9.73;;;;;;;;;;5004689;28;20057;-63
2023/01/21 13:17:13;;;;;;;15.00;9.23;;;;;;;;;;5014529;28;20025;-64
2023/01/21 13:19:39;;;;;;;13.93;8.98;;;;;;;;;;5013730;28;20416;-61
2023/01/21 13:22:20;;;;;;;13.13;8.90;;;;;;;;;;5011682;28;20026;-62
2023/01/21 13:25:08;;;;;;;14.20;8.93;;;;;;;;;;5011313;28;20022;-61
2023/01/21 13:27:46;;;;;;;15.45;9.07;;;;;;;;;;4991694;28;20038;-64
2023/01/21 13:30:23;;;;;;;12.60;8.45;;;;;;;;;;5014393;28;20018;-61
2023/01/21 13:33:05;;;;;;;14.68;9.02;;;;;;;;;;5014400;28;20037;-63
2023/01/21 13:35:55;;;;;;;16.27;8.85;;;;;;;;;;5018967;28;20430;-62
2023/01/21 13:38:39;;;;;;;13.70;8.53;;;;;;;;;;4994128;28;20354;-65
2023/01/21 13:41:30;;;;;;;13.35;8.88;;;;;;;;;;5000110;28;20452;-66
2023/01/21 13:44:10;;;;;;;12.57;8.35;;;;;;;;;;5011255;28;20473;-66
2023/01/21 13:47:07;;;;;;;12.05;8.10;;;;;;;;;;5011008;28;20050;-65
2023/01/21 13:49:41;;;;;;;13.25;8.32;;;;;;;;;;5012491;28;20477;-66
2023/01/21 13:52:16;;;;;;;13.55;9.27;;;;;;;;;;5013150;28;20706;-65
2023/01/21 13:55:09;;;;;;;13.48;8.57;;;;;;;;;;5013489;28;20026;-66
2023/01/21 13:57:59;;;;;;;11.65;8.20;;;;;;;;;;5013123;28;20037;-66
2023/01/21 14:00:32;;;;;;;13.00;8.32;;;;;;;;;;5013964;28;20030;-65
2023/01/21 14:03:09;;;;;;;13.82;8.48;;;;;;;;;;5014268;28;20029;-66
2023/01/21 14:05:55;;;;;;;12.48;7.95;;;;;;;;;;5013835;28;20105;-65
2023/01/21 14:08:44;;;;;;;11.82;7.75;;;;;;;;;;5013555;28;20112;-61
2023/01/21 14:11:33;;;;;;;13.10;8.68;;;;;;;;;;5013331;28;20030;-65
2023/01/21 14:14:26;;;;;;;15.40;8.85;;;;;;;;;;5022041;28;20053;-62
2023/01/21 14:17:30;;;;;;;13.20;8.15;;;;;;;;;;5022404;28;20036;-62
2023/01/21 14:20:08;;;;;;;11.95;7.95;;;;;;;;;;5020261;28;20057;-65
2023/01/21 14:23:13;;;;;;;12.57;8.25;;;;;;;;;;5016063;28;20033;-62
2023/01/21 14:26:04;;;;;;;9.90;7.50;;;;;;;;;;4979040;28;20584;-61
2023/01/21 14:28:59;;;;;;;10.70;8.02;;;;;;;;;;5021997;28;20121;-63
2023/01/21 14:31:35;;;;;;;8.55;6.65;;;;;;;;;;5032888;28;20025;-64
2023/01/21 14:34:12;;;;;;;8.45;6.18;;;;;;;;;;5033107;28;20473;-67
2023/01/21 14:37:11;;;;;;;7.68;6.07;;;;;;;;;;5029887;28;20041;-64
2023/01/21 14:39:48;;;;;;;8.93;6.05;;;;;;;;;;5018323;28;20049;-62
2023/01/21 14:42:23;;;;;;;9.85;6.07;;;;;;;;;;5014161;28;20021;-68
2023/01/21 14:44:49;;;;;;;8.73;6.07;;;;;;;;;;5011532;28;20428;-66
2023/01/21 14:47:37;;;;;;;11.70;6.70;;;;;;;;;;5011035;28;20022;-64
2023/01/21 14:50:03;;;;;;;8.60;5.88;;;;;;;;;;5004951;28;20049;-66
2023/01/21 14:52:31;;;;;;;9.35;6.38;;;;;;;;;;5012344;28;20076;-65
2023/01/21 14:54:58;;;;;;;10.40;6.75;;;;;;;;;;5011779;28;20050;-64
2023/01/21 14:57:36;;;;;;;8.55;6.15;;;;;;;;;;5011722;28;20030;-66
2023/01/21 15:00:29;;;;;;;7.68;6.35;;;;;;;;;;5012957;28;20026;-65
2023/01/21 15:03:14;;;;;;;9.20;6.20;;;;;;;;;;5013234;28;20025;-63
2023/01/21 15:05:40;;;;;;;10.85;6.55;;;;;;;;;;5012811;28;20482;-64
2023/01/21 15:08:27;;;;;;;11.40;6.70;;;;;;;;;;5012782;28;20474;-63